sensor_id;sensor_type;location;lat;lon;timestamp;pressure;altitude;pressure_sealevel;temperature;humidity
47738;BME280;33502;47.182;27.506;2023-03-13T00:01:36;100564.53;;;-2.89;100.00
47738;BME280;33502;47.182;27.506;2023-03-13T00:04:02;100563.81;;;-2.80;100.00
47738;BME280;33502;47.182;27.506;2023-03-13T00:06:32;100565.69;;;-2.70;100.00
47738;BME280;33502;47.182;27.506;2023-03-13T00:08:58;100567.44;;;-2.69;100.00
47738;BME280;33502;47.182;27.506;2023-03-13T00:11:27;100575.06;;;-2.78;100.00
47738;BME280;33502;47.182;27.506;2023-03-13T00:13:53;100579.28;;;-2.86;100.00
47738;BME280;33502;47.182;27.506;2023-03-13T00:16:20;100574.84;;;-2.93;100.00
47738;BME280;33502;47.182;27.506;2023-03-13T00:18:46;100576.56;;;-2.92;100.00
47738;BME280;33502;47.182;27.506;2023-03-13T00:21:12;100577.56;;;-2.84;100.00
47738;BME280;33502;47.182;27.506;2023-03-13T00:23:38;100575.00;;;-2.83;100.00
47738;BME280;33502;47.182;27.506;2023-03-13T00:26:04;100569.69;;;-2.92;100.00
47738;BME280;33502;47.182;27.506;2023-03-13T00:28:31;100577.19;;;-3.06;100.00
47738;BME280;33502;47.182;27.506;2023-03-13T00:31:04;100581.50;;;-3.08;100.00
47738;BME280;33502;47.182;27.506;2023-03-13T00:33:33;100578.84;;;-3.12;100.00
47738;BME280;33502;47.182;27.506;2023-03-13T00:36:03;100583.09;;;-3.16;100.00
47738;BME280;33502;47.182;27.506;2023-03-13T00:38:31;100582.25;;;-3.13;100.00
47738;BME280;33502;47.182;27.506;2023-03-13T00:40:57;100576.28;;;-3.11;100.00
47738;BME280;33502;47.182;27.506;2023-03-13T00:43:23;100572.09;;;-3.03;100.00
47738;BME280;33502;47.182;27.506;2023-03-13T00:45:48;100570.47;;;-2.96;100.00
47738;BME280;33502;47.182;27.506;2023-03-13T00:48:14;100567.97;;;-2.90;100.00
47738;BME280;33502;47.182;27.506;2023-03-13T00:50:40;100576.63;;;-2.89;100.00
47738;BME280;33502;47.182;27.506;2023-03-13T00:53:05;100574.94;;;-2.86;100.00
47738;BME280;33502;47.182;27.506;2023-03-13T00:55:32;100574.19;;;-2.80;100.00
47738;BME280;33502;47.182;27.506;2023-03-13T00:57:58;100566.50;;;-2.74;100.00
47738;BME280;33502;47.182;27.506;2023-03-13T01:00:24;100563.09;;;-2.70;100.00
47738;BME280;33502;47.182;27.506;2023-03-13T01:02:50;100559.56;;;-2.73;100.00
47738;BME280;33502;47.182;27.506;2023-03-13T01:05:16;100571.63;;;-2.79;100.00
47738;BME280;33502;47.182;27.506;2023-03-13T01:07:41;100567.16;;;-2.87;100.00
47738;BME280;33502;47.182;27.506;2023-03-13T01:10:07;100573.84;;;-3.02;100.00
47738;BME280;33502;47.182;27.506;2023-03-13T01:12:33;100571.91;;;-3.15;100.00
47738;BME280;33502;47.182;27.506;2023-03-13T01:14:58;100569.13;;;-3.26;100.00
47738;BME280;33502;47.182;27.506;2023-03-13T01:17:24;100568.09;;;-3.36;100.00
47738;BME280;33502;47.182;27.506;2023-03-13T01:19:50;100562.69;;;-3.46;100.00
47738;BME280;33502;47.182;27.506;2023-03-13T01:22:15;100563.41;;;-3.55;100.00
47738;BME280;33502;47.182;27.506;2023-03-13T01:24:41;100566.75;;;-3.61;100.00
47738;BME280;33502;47.182;27.506;2023-03-13T01:27:07;100567.59;;;-3.62;100.00
47738;BME280;33502;47.182;27.506;2023-03-13T01:29:32;100567.53;;;-3.66;100.00
47738;BME280;33502;47.182;27.506;2023-03-13T01:31:58;100564.97;;;-3.65;100.00
47738;BME280;33502;47.182;27.506;2023-03-13T01:34:23;100562.25;;;-3.71;100.00
47738;BME280;33502;47.182;27.506;2023-03-13T01:36:50;100571.63;;;-3.78;100.00
47738;BME280;33502;47.182;27.506;2023-03-13T01:39:17;100574.13;;;-3.81;100.00
47738;BME280;33502;47.182;27.506;2023-03-13T01:41:42;100583.59;;;-3.83;100.00
47738;BME280;33502;47.182;27.506;2023-03-13T01:44:17;100575.81;;;-3.83;100.00
47738;BME280;33502;47.182;27.506;2023-03-13T01:46:44;100583.53;;;-3.84;100.00
47738;BME280;33502;47.182;27.506;2023-03-13T01:49:30;100584.44;;;-3.84;100.00
47738;BME280;33502;47.182;27.506;2023-03-13T01:52:22;100587.94;;;-3.82;100.00
47738;BME280;33502;47.182;27.506;2023-03-13T01:57:29;100590.22;;;-3.96;100.00
47738;BME280;33502;47.182;27.506;2023-03-13T02:00:04;100597.03;;;-4.01;100.00
47738;BME280;33502;47.182;27.506;2023-03-13T02:02:39;100600.41;;;-4.05;100.00
47738;BME280;33502;47.182;27.506;2023-03-13T02:05:05;100603.69;;;-4.12;100.00
47738;BME280;33502;47.182;27.506;2023-03-13T02:07:33;100600.97;;;-4.17;100.00
47738;BME280;33502;47.182;27.506;2023-03-13T02:10:01;100601.84;;;-4.18;100.00
47738;BME280;33502;47.182;27.506;2023-03-13T02:14:52;100610.22;;;-4.29;100.00
47738;BME280;33502;47.182;27.506;2023-03-13T02:17:18;100609.19;;;-4.36;100.00
47738;BME280;33502;47.182;27.506;2023-03-13T02:19:45;100605.59;;;-4.43;100.00
47738;BME280;33502;47.182;27.506;2023-03-13T02:22:15;100611.47;;;-4.50;100.00
47738;BME280;33502;47.182;27.506;2023-03-13T02:27:19;100611.13;;;-4.65;100.00
47738;BME280;33502;47.182;27.506;2023-03-13T02:29:46;100619.69;;;-4.66;100.00
47738;BME280;33502;47.182;27.506;2023-03-13T02:32:12;100622.25;;;-4.68;100.00
47738;BME280;33502;47.182;27.506;2023-03-13T02:34:39;100635.13;;;-4.69;100.00
47738;BME280;33502;47.182;27.506;2023-03-13T02:37:07;100630.84;;;-4.69;100.00
47738;BME280;33502;47.182;27.506;2023-03-13T02:39:38;100644.59;;;-4.70;100.00
47738;BME280;33502;47.182;27.506;2023-03-13T02:42:05;100635.19;;;-4.66;100.00
47738;BME280;33502;47.182;27.506;2023-03-13T02:44:38;100641.34;;;-4.61;100.00
47738;BME280;33502;47.182;27.506;2023-03-13T02:47:05;100653.63;;;-4.53;100.00
47738;BME280;33502;47.182;27.506;2023-03-13T02:49:31;100657.13;;;-4.50;100.00
47738;BME280;33502;47.182;27.506;2023-03-13T02:51:58;100661.38;;;-4.53;100.00
47738;BME280;33502;47.182;27.506;2023-03-13T02:54:32;100660.41;;;-4.58;100.00
47738;BME280;33502;47.182;27.506;2023-03-13T02:56:59;100657.72;;;-4.62;100.00
47738;BME280;33502;47.182;27.506;2023-03-13T02:59:26;100648.19;;;-4.63;100.00
47738;BME280;33502;47.182;27.506;2023-03-13T03:01:52;100644.66;;;-4.67;100.00
47738;BME280;33502;47.182;27.506;2023-03-13T03:04:22;100652.28;;;-4.73;100.00
47738;BME280;33502;47.182;27.506;2023-03-13T03:06:53;100643.47;;;-4.81;100.00
47738;BME280;33502;47.182;27.506;2023-03-13T03:09:19;100641.50;;;-4.90;100.00
47738;BME280;33502;47.182;27.506;2023-03-13T03:11:45;100640.56;;;-4.94;100.00
47738;BME280;33502;47.182;27.506;2023-03-13T03:14:13;100644.00;;;-4.95;100.00
47738;BME280;33502;47.182;27.506;2023-03-13T03:16:42;100641.44;;;-4.93;100.00
47738;BME280;33502;47.182;27.506;2023-03-13T03:19:08;100651.22;;;-4.81;100.00
47738;BME280;33502;47.182;27.506;2023-03-13T03:21:35;100659.06;;;-4.77;100.00
47738;BME280;33502;47.182;27.506;2023-03-13T03:24:00;100656.63;;;-4.70;100.00
47738;BME280;33502;47.182;27.506;2023-03-13T03:26:26;100659.44;;;-4.61;100.00
47738;BME280;33502;47.182;27.506;2023-03-13T03:28:52;100662.88;;;-4.61;100.00
47738;BME280;33502;47.182;27.506;2023-03-13T03:31:18;100673.13;;;-4.65;100.00
47738;BME280;33502;47.182;27.506;2023-03-13T03:33:44;100671.41;;;-4.65;100.00
47738;BME280;33502;47.182;27.506;2023-03-13T03:36:14;100666.28;;;-4.63;100.00
47738;BME280;33502;47.182;27.506;2023-03-13T03:38:40;100669.88;;;-4.57;100.00
47738;BME280;33502;47.182;27.506;2023-03-13T03:41:08;100663.16;;;-4.50;100.00
47738;BME280;33502;47.182;27.506;2023-03-13T03:43:34;100669.34;;;-4.43;100.00
47738;BME280;33502;47.182;27.506;2023-03-13T03:46:02;100671.97;;;-4.42;100.00
47738;BME280;33502;47.182;27.506;2023-03-13T03:48:28;100669.34;;;-4.43;100.00
47738;BME280;33502;47.182;27.506;2023-03-13T03:50:53;100662.44;;;-4.44;100.00
47738;BME280;33502;47.182;27.506;2023-03-13T03:53:20;100667.59;;;-4.44;100.00
47738;BME280;33502;47.182;27.506;2023-03-13T03:55:46;100671.91;;;-4.45;100.00
47738;BME280;33502;47.182;27.506;2023-03-13T03:58:12;100677.91;;;-4.46;100.00
47738;BME280;33502;47.182;27.506;2023-03-13T04:00:55;100667.66;;;-4.43;100.00
47738;BME280;33502;47.182;27.506;2023-03-13T04:03:21;100658.16;;;-4.42;100.00
47738;BME280;33502;47.182;27.506;2023-03-13T04:05:48;100656.44;;;-4.42;100.00
47738;BME280;33502;47.182;27.506;2023-03-13T04:08:14;100657.34;;;-4.40;100.00
47738;BME280;33502;47.182;27.506;2023-03-13T04:10:40;100656.44;;;-4.42;100.00
47738;BME280;33502;47.182;27.506;2023-03-13T04:13:07;100661.56;;;-4.43;100.00
47738;BME280;33502;47.182;27.506;2023-03-13T04:15:33;100669.31;;;-4.45;100.00
47738;BME280;33502;47.182;27.506;2023-03-13T04:17:59;100671.00;;;-4.45;100.00
47738;BME280;33502;47.182;27.506;2023-03-13T04:20:25;100684.75;;;-4.48;100.00
47738;BME280;33502;47.182;27.506;2023-03-13T04:22:51;100688.97;;;-4.52;100.00
47738;BME280;33502;47.182;27.506;2023-03-13T04:25:17;100686.75;;;-4.36;100.00
47738;BME280;33502;47.182;27.506;2023-03-13T04:27:43;100691.84;;;-4.01;100.00
47738;BME280;33502;47.182;27.506;2023-03-13T04:30:09;100699.44;;;-3.69;100.00
47738;BME280;33502;47.182;27.506;2023-03-13T04:32:53;100698.16;;;-3.49;100.00
47738;BME280;33502;47.182;27.506;2023-03-13T04:35:42;100702.78;;;-3.32;100.00
47738;BME280;33502;47.182;27.506;2023-03-13T04:38:31;100694.34;;;-3.22;100.00
47738;BME280;33502;47.182;27.506;2023-03-13T04:41:13;100698.06;;;-3.08;100.00
47738;BME280;33502;47.182;27.506;2023-03-13T04:43:49;100689.91;;;-2.82;100.00
47738;BME280;33502;47.182;27.506;2023-03-13T04:46:33;100689.84;;;-2.33;100.00
47738;BME280;33502;47.182;27.506;2023-03-13T04:48:59;100687.91;;;-1.87;100.00
47738;BME280;33502;47.182;27.506;2023-03-13T04:51:43;100689.31;;;-1.47;100.00
47738;BME280;33502;47.182;27.506;2023-03-13T04:54:31;100690.78;;;-0.91;100.00
47738;BME280;33502;47.182;27.506;2023-03-13T04:57:04;100692.50;;;0.19;94.41
47738;BME280;33502;47.182;27.506;2023-03-13T04:59:38;100692.88;;;1.21;84.75
47738;BME280;33502;47.182;27.506;2023-03-13T05:02:04;100703.31;;;2.08;77.00
47738;BME280;33502;47.182;27.506;2023-03-13T05:04:47;100705.81;;;2.44;74.33
47738;BME280;33502;47.182;27.506;2023-03-13T05:07:25;100714.63;;;1.89;76.72
47738;BME280;33502;47.182;27.506;2023-03-13T05:10:09;100715.50;;;1.62;78.04
47738;BME280;33502;47.182;27.506;2023-03-13T05:13:01;100721.59;;;1.71;78.10
47738;BME280;33502;47.182;27.506;2023-03-13T05:15:38;100724.19;;;1.54;79.73
47738;BME280;33502;47.182;27.506;2023-03-13T05:18:32;100719.84;;;1.33;81.31
47738;BME280;33502;47.182;27.506;2023-03-13T05:21:25;100716.34;;;1.13;81.50
47738;BME280;33502;47.182;27.506;2023-03-13T05:24:11;100714.56;;;1.04;78.24
47738;BME280;33502;47.182;27.506;2023-03-13T05:26:57;100713.66;;;0.85;79.25
47738;BME280;33502;47.182;27.506;2023-03-13T05:29:44;100723.16;;;0.72;77.95
47738;BME280;33502;47.182;27.506;2023-03-13T05:32:19;100721.41;;;0.65;78.19
47738;BME280;33502;47.182;27.506;2023-03-13T05:35:13;100715.31;;;0.62;77.69
47738;BME280;33502;47.182;27.506;2023-03-13T05:37:55;100703.97;;;0.50;78.18
47738;BME280;33502;47.182;27.506;2023-03-13T05:40:30;100703.91;;;0.36;79.31
47738;BME280;33502;47.182;27.506;2023-03-13T05:43:01;100695.16;;;0.30;79.31
47738;BME280;33502;47.182;27.506;2023-03-13T05:45:56;100696.88;;;0.25;79.56
47738;BME280;33502;47.182;27.506;2023-03-13T05:48:35;100695.25;;;0.45;79.96
47738;BME280;33502;47.182;27.506;2023-03-13T05:51:23;100689.41;;;1.37;76.71
47738;BME280;33502;47.182;27.506;2023-03-13T05:54:15;100694.00;;;3.34;69.80
47738;BME280;33502;47.182;27.506;2023-03-13T05:56:59;100694.16;;;5.49;61.63
47738;BME280;33502;47.182;27.506;2023-03-13T05:59:37;100690.34;;;6.64;55.97
47738;BME280;33502;47.182;27.506;2023-03-13T06:02:31;100684.63;;;7.96;50.84
47738;BME280;33502;47.182;27.506;2023-03-13T06:04:58;100691.81;;;9.16;46.84
47738;BME280;33502;47.182;27.506;2023-03-13T06:07:23;100693.34;;;9.78;45.56
47738;BME280;33502;47.182;27.506;2023-03-13T06:09:49;100692.94;;;10.16;44.29
47738;BME280;33502;47.182;27.506;2023-03-13T06:12:15;100694.47;;;10.48;42.30
47738;BME280;33502;47.182;27.506;2023-03-13T06:14:41;100699.50;;;8.65;45.80
47738;BME280;33502;47.182;27.506;2023-03-13T06:17:25;100693.13;;;8.08;47.80
47738;BME280;33502;47.182;27.506;2023-03-13T06:19:50;100686.66;;;7.13;49.40
47738;BME280;33502;47.182;27.506;2023-03-13T06:22:16;100689.50;;;5.67;53.64
47738;BME280;33502;47.182;27.506;2023-03-13T06:24:42;100682.53;;;4.40;58.30
47738;BME280;33502;47.182;27.506;2023-03-13T06:27:09;100688.56;;;3.63;61.48
47738;BME280;33502;47.182;27.506;2023-03-13T06:29:35;100692.28;;;3.28;63.82
47738;BME280;33502;47.182;27.506;2023-03-13T06:32:00;100701.31;;;2.81;66.62
47738;BME280;33502;47.182;27.506;2023-03-13T06:34:26;100708.41;;;2.54;67.33
47738;BME280;33502;47.182;27.506;2023-03-13T06:36:52;100700.56;;;2.54;69.04
47738;BME280;33502;47.182;27.506;2023-03-13T06:39:18;100701.25;;;2.92;68.11
47738;BME280;33502;47.182;27.506;2023-03-13T06:41:43;100687.53;;;4.62;61.78
47738;BME280;33502;47.182;27.506;2023-03-13T06:44:12;100690.56;;;6.53;54.81
47738;BME280;33502;47.182;27.506;2023-03-13T06:46:37;100680.47;;;8.20;49.57
47738;BME280;33502;47.182;27.506;2023-03-13T06:49:03;100681.06;;;8.63;46.75
47738;BME280;33502;47.182;27.506;2023-03-13T06:51:30;100679.19;;;8.35;46.57
47738;BME280;33502;47.182;27.506;2023-03-13T06:53:56;100671.75;;;8.81;45.73
47738;BME280;33502;47.182;27.506;2023-03-13T06:56:21;100676.47;;;9.56;44.11
47738;BME280;33502;47.182;27.506;2023-03-13T06:58:48;100682.22;;;11.15;42.21
47738;BME280;33502;47.182;27.506;2023-03-13T07:01:14;100681.47;;;12.60;39.47
47738;BME280;33502;47.182;27.506;2023-03-13T07:03:40;100685.56;;;12.86;37.98
47738;BME280;33502;47.182;27.506;2023-03-13T07:06:06;100676.91;;;13.01;38.42
47738;BME280;33502;47.182;27.506;2023-03-13T07:08:32;100673.44;;;12.80;37.92
47738;BME280;33502;47.182;27.506;2023-03-13T07:11:00;100669.44;;;9.82;42.33
47738;BME280;33502;47.182;27.506;2023-03-13T07:13:26;100672.78;;;8.13;46.13
47738;BME280;33502;47.182;27.506;2023-03-13T07:15:51;100674.13;;;7.24;47.35
47738;BME280;33502;47.182;27.506;2023-03-13T07:18:18;100671.25;;;7.70;46.99
47738;BME280;33502;47.182;27.506;2023-03-13T07:20:43;100660.16;;;10.20;43.43
47738;BME280;33502;47.182;27.506;2023-03-13T07:23:09;100664.38;;;10.74;39.04
47738;BME280;33502;47.182;27.506;2023-03-13T07:25:35;100668.22;;;11.11;39.39
47738;BME280;33502;47.182;27.506;2023-03-13T07:28:00;100663.44;;;11.43;37.88
47738;BME280;33502;47.182;27.506;2023-03-13T07:30:26;100652.66;;;12.50;37.05
47738;BME280;33502;47.182;27.506;2023-03-13T07:32:52;100657.34;;;13.75;35.47
47738;BME280;33502;47.182;27.506;2023-03-13T07:35:18;100671.69;;;14.07;33.01
47738;BME280;33502;47.182;27.506;2023-03-13T07:37:44;100671.84;;;14.04;32.82
47738;BME280;33502;47.182;27.506;2023-03-13T07:40:10;100679.09;;;13.10;32.62
47738;BME280;33502;47.182;27.506;2023-03-13T07:42:38;100670.56;;;12.85;33.72
47738;BME280;33502;47.182;27.506;2023-03-13T07:45:04;100648.88;;;13.13;32.87
47738;BME280;33502;47.182;27.506;2023-03-13T07:47:29;100656.75;;;13.87;32.20
47738;BME280;33502;47.182;27.506;2023-03-13T07:49:55;100655.38;;;14.64;32.06
47738;BME280;33502;47.182;27.506;2023-03-13T07:52:21;100660.03;;;14.77;30.46
47738;BME280;33502;47.182;27.506;2023-03-13T07:54:47;100658.94;;;14.81;30.30
47738;BME280;33502;47.182;27.506;2023-03-13T07:57:12;100654.44;;;15.45;30.75
47738;BME280;33502;47.182;27.506;2023-03-13T07:59:38;100652.06;;;15.71;29.69
47738;BME280;33502;47.182;27.506;2023-03-13T08:02:04;100654.69;;;14.61;30.81
47738;BME280;33502;47.182;27.506;2023-03-13T08:04:29;100662.16;;;12.94;32.39
47738;BME280;33502;47.182;27.506;2023-03-13T08:06:57;100661.91;;;13.37;32.94
47738;BME280;33502;47.182;27.506;2023-03-13T08:09:24;100657.16;;;14.30;31.48
47738;BME280;33502;47.182;27.506;2023-03-13T08:11:49;100658.66;;;15.01;30.65
47738;BME280;33502;47.182;27.506;2023-03-13T08:14:15;100655.06;;;15.64;30.07
47738;BME280;33502;47.182;27.506;2023-03-13T08:16:41;100650.00;;;15.60;29.47
47738;BME280;33502;47.182;27.506;2023-03-13T08:19:06;100655.41;;;15.74;29.50
47738;BME280;33502;47.182;27.506;2023-03-13T08:21:33;100649.06;;;15.77;29.63
47738;BME280;33502;47.182;27.506;2023-03-13T08:24:00;100651.94;;;15.72;29.21
47738;BME280;33502;47.182;27.506;2023-03-13T08:26:26;100652.75;;;15.58;29.53
47738;BME280;33502;47.182;27.506;2023-03-13T08:28:55;100671.59;;;15.25;29.18
47738;BME280;33502;47.182;27.506;2023-03-13T08:31:23;100658.66;;;15.01;29.98
47738;BME280;33502;47.182;27.506;2023-03-13T08:33:49;100654.81;;;14.91;30.46
47738;BME280;33502;47.182;27.506;2023-03-13T08:38:41;100640.88;;;14.86;30.34
47738;BME280;33502;47.182;27.506;2023-03-13T08:41:08;100642.56;;;14.04;31.64
47738;BME280;33502;47.182;27.506;2023-03-13T08:43:34;100625.00;;;13.11;32.61
47738;BME280;33502;47.182;27.506;2023-03-13T08:46:00;100620.06;;;12.85;33.29
47738;BME280;33502;47.182;27.506;2023-03-13T08:48:26;100620.00;;;13.05;32.56
47738;BME280;33502;47.182;27.506;2023-03-13T08:51:08;100607.59;;;13.23;33.02
47738;BME280;33502;47.182;27.506;2023-03-13T08:53:34;100602.50;;;12.82;33.17
47738;BME280;33502;47.182;27.506;2023-03-13T08:56:00;100600.81;;;12.42;33.57
47738;BME280;33502;47.182;27.506;2023-03-13T08:58:26;100595.31;;;12.07;34.03
47738;BME280;33502;47.182;27.506;2023-03-13T09:00:53;100587.63;;;12.01;35.06
47738;BME280;33502;47.182;27.506;2023-03-13T09:03:19;100580.81;;;11.95;35.37
47738;BME280;33502;47.182;27.506;2023-03-13T09:05:44;100583.97;;;11.83;35.21
47738;BME280;33502;47.182;27.506;2023-03-13T09:08:12;100588.09;;;11.90;35.08
47738;BME280;33502;47.182;27.506;2023-03-13T09:10:38;100590.16;;;12.04;34.89
47738;BME280;33502;47.182;27.506;2023-03-13T09:13:03;100589.97;;;11.86;34.80
47738;BME280;33502;47.182;27.506;2023-03-13T09:15:29;100594.66;;;11.81;33.41
47738;BME280;33502;47.182;27.506;2023-03-13T09:17:55;100614.97;;;12.03;34.19
47738;BME280;33502;47.182;27.506;2023-03-13T09:20:20;100609.03;;;11.75;33.34
47738;BME280;33502;47.182;27.506;2023-03-13T09:22:46;100605.59;;;11.94;33.35
47738;BME280;33502;47.182;27.506;2023-03-13T09:25:12;100608.72;;;11.83;33.24
47738;BME280;33502;47.182;27.506;2023-03-13T09:27:38;100619.09;;;11.89;33.67
47738;BME280;33502;47.182;27.506;2023-03-13T09:30:04;100607.56;;;12.09;33.91
47738;BME280;33502;47.182;27.506;2023-03-13T09:32:29;100617.75;;;12.39;33.33
47738;BME280;33502;47.182;27.506;2023-03-13T09:34:55;100595.66;;;12.39;33.34
47738;BME280;33502;47.182;27.506;2023-03-13T09:37:21;100594.34;;;12.85;32.63
47738;BME280;33502;47.182;27.506;2023-03-13T09:39:47;100590.16;;;12.99;32.55
47738;BME280;33502;47.182;27.506;2023-03-13T09:42:16;100592.31;;;13.09;31.66
47738;BME280;33502;47.182;27.506;2023-03-13T09:44:53;100595.91;;;12.89;33.25
47738;BME280;33502;47.182;27.506;2023-03-13T09:49:54;100592.13;;;12.76;32.19
47738;BME280;33502;47.182;27.506;2023-03-13T09:52:26;100575.13;;;12.80;31.86
47738;BME280;33502;47.182;27.506;2023-03-13T09:59:56;100566.41;;;13.32;30.94
47738;BME280;33502;47.182;27.506;2023-03-13T10:02:30;100563.44;;;13.73;30.48
47738;BME280;33502;47.182;27.506;2023-03-13T10:05:19;100558.28;;;14.03;30.12
47738;BME280;33502;47.182;27.506;2023-03-13T10:07:43;100563.09;;;13.97;30.41
47738;BME280;33502;47.182;27.506;2023-03-13T10:10:16;100564.31;;;14.56;30.61
47738;BME280;33502;47.182;27.506;2023-03-13T10:12:46;100554.75;;;15.16;28.06
47738;BME280;33502;47.182;27.506;2023-03-13T10:17:47;100555.44;;;15.03;27.62
47738;BME280;33502;47.182;27.506;2023-03-13T10:22:42;100558.44;;;15.43;28.31
47738;BME280;33502;47.182;27.506;2023-03-13T10:25:12;100556.06;;;14.77;27.07
47738;BME280;33502;47.182;27.506;2023-03-13T10:27:47;100552.19;;;14.82;27.78
47738;BME280;33502;47.182;27.506;2023-03-13T10:30:19;100545.41;;;14.93;26.89
47738;BME280;33502;47.182;27.506;2023-03-13T10:32:46;100540.00;;;15.24;27.84
47738;BME280;33502;47.182;27.506;2023-03-13T10:35:17;100532.97;;;15.68;26.67
47738;BME280;33502;47.182;27.506;2023-03-13T10:37:44;100532.06;;;15.53;25.81
47738;BME280;33502;47.182;27.506;2023-03-13T10:40:11;100523.91;;;14.80;26.29
47738;BME280;33502;47.182;27.506;2023-03-13T10:42:39;100527.09;;;14.71;27.17
47738;BME280;33502;47.182;27.506;2023-03-13T10:45:12;100530.88;;;14.98;26.21
47738;BME280;33502;47.182;27.506;2023-03-13T10:47:38;100526.75;;;14.93;26.31
47738;BME280;33502;47.182;27.506;2023-03-13T10:50:04;100513.09;;;15.43;26.27
47738;BME280;33502;47.182;27.506;2023-03-13T10:54:59;100524.78;;;14.96;26.14
47738;BME280;33502;47.182;27.506;2023-03-13T10:57:30;100515.31;;;14.91;26.68
47738;BME280;33502;47.182;27.506;2023-03-13T10:59:56;100530.44;;;14.90;27.12
47738;BME280;33502;47.182;27.506;2023-03-13T11:02:32;100509.56;;;14.66;27.20
47738;BME280;33502;47.182;27.506;2023-03-13T11:05:00;100506.59;;;15.03;27.54
47738;BME280;33502;47.182;27.506;2023-03-13T11:10:37;100489.56;;;15.50;25.91
47738;BME280;33502;47.182;27.506;2023-03-13T11:12:44;100500.03;;;15.08;25.57
47738;BME280;33502;47.182;27.506;2023-03-13T11:15:14;100489.78;;;15.17;26.32
47738;BME280;33502;47.182;27.506;2023-03-13T11:17:41;100481.59;;;15.20;25.79
47738;BME280;33502;47.182;27.506;2023-03-13T11:28:43;100472.75;;;16.07;25.41
47738;BME280;33502;47.182;27.506;2023-03-13T11:30:58;100456.81;;;16.47;25.25
47738;BME280;33502;47.182;27.506;2023-03-13T11:36:35;100456.84;;;18.04;24.00
47738;BME280;33502;47.182;27.506;2023-03-13T11:47:10;100442.63;;;15.76;25.35
47738;BME280;33502;47.182;27.506;2023-03-13T11:49:52;100435.72;;;15.58;25.42
47738;BME280;33502;47.182;27.506;2023-03-13T11:56:05;100429.03;;;16.50;24.43
47738;BME280;33502;47.182;27.506;2023-03-13T11:58:05;100425.94;;;16.83;24.15
47738;BME280;33502;47.182;27.506;2023-03-13T12:05:43;100423.63;;;16.91;25.24
47738;BME280;33502;47.182;27.506;2023-03-13T12:08:20;100413.03;;;16.90;25.08
47738;BME280;33502;47.182;27.506;2023-03-13T12:10:55;100420.09;;;15.95;25.63
47738;BME280;33502;47.182;27.506;2023-03-13T12:13:26;100420.09;;;15.52;26.22
47738;BME280;33502;47.182;27.506;2023-03-13T12:15:55;100411.03;;;15.97;26.08
47738;BME280;33502;47.182;27.506;2023-03-13T12:21:09;100423.50;;;15.39;26.62
47738;BME280;33502;47.182;27.506;2023-03-13T12:23:42;100420.13;;;15.07;25.72
47738;BME280;33502;47.182;27.506;2023-03-13T12:26:12;100412.44;;;15.45;25.64
47738;BME280;33502;47.182;27.506;2023-03-13T12:28:46;100411.25;;;16.21;25.78
47738;BME280;33502;47.182;27.506;2023-03-13T12:31:18;100406.75;;;16.76;25.32
47738;BME280;33502;47.182;27.506;2023-03-13T12:38:53;100406.41;;;16.14;25.80
47738;BME280;33502;47.182;27.506;2023-03-13T12:41:24;100394.44;;;16.34;26.42
47738;BME280;33502;47.182;27.506;2023-03-13T12:43:52;100410.94;;;15.70;26.17
47738;BME280;33502;47.182;27.506;2023-03-13T12:51:40;100406.44;;;16.81;25.83
47738;BME280;33502;47.182;27.506;2023-03-13T12:54:26;100397.09;;;16.61;25.92
47738;BME280;33502;47.182;27.506;2023-03-13T12:59:31;100397.13;;;15.35;27.93
47738;BME280;33502;47.182;27.506;2023-03-13T13:01:59;100394.97;;;15.11;27.73
47738;BME280;33502;47.182;27.506;2023-03-13T13:04:32;100389.09;;;15.49;27.87
47738;BME280;33502;47.182;27.506;2023-03-13T13:09:34;100391.22;;;15.44;26.91
47738;BME280;33502;47.182;27.506;2023-03-13T13:24:51;100397.66;;;16.12;25.94
47738;BME280;33502;47.182;27.506;2023-03-13T13:32:48;100382.91;;;15.92;26.19
47738;BME280;33502;47.182;27.506;2023-03-13T13:35:22;100380.25;;;15.92;27.06
47738;BME280;33502;47.182;27.506;2023-03-13T13:37:48;100377.94;;;15.85;26.66
47738;BME280;33502;47.182;27.506;2023-03-13T13:42:46;100356.91;;;16.08;26.20
47738;BME280;33502;47.182;27.506;2023-03-13T13:47:42;100362.91;;;15.41;26.89
47738;BME280;33502;47.182;27.506;2023-03-13T13:50:27;100353.94;;;15.14;27.58
47738;BME280;33502;47.182;27.506;2023-03-13T13:53:22;100349.34;;;15.01;28.04
47738;BME280;33502;47.182;27.506;2023-03-13T13:58:05;100347.00;;;14.66;28.13
47738;BME280;33502;47.182;27.506;2023-03-13T14:00:44;100353.47;;;14.62;28.18
47738;BME280;33502;47.182;27.506;2023-03-13T14:03:21;100347.94;;;14.65;28.36
47738;BME280;33502;47.182;27.506;2023-03-13T14:05:48;100344.50;;;14.63;29.38
47738;BME280;33502;47.182;27.506;2023-03-13T14:08:18;100345.09;;;14.68;29.62
47738;BME280;33502;47.182;27.506;2023-03-13T14:10:50;100349.09;;;14.45;29.47
47738;BME280;33502;47.182;27.506;2023-03-13T14:13:19;100345.91;;;14.55;30.22
47738;BME280;33502;47.182;27.506;2023-03-13T14:15:46;100343.16;;;14.56;29.69
47738;BME280;33502;47.182;27.506;2023-03-13T14:20:39;100323.94;;;14.65;29.86
47738;BME280;33502;47.182;27.506;2023-03-13T14:23:06;100330.56;;;14.74;29.63
47738;BME280;33502;47.182;27.506;2023-03-13T14:25:45;100330.66;;;14.26;30.03
47738;BME280;33502;47.182;27.506;2023-03-13T14:28:18;100335.84;;;13.98;30.55
47738;BME280;33502;47.182;27.506;2023-03-13T14:30:45;100332.69;;;13.91;30.91
47738;BME280;33502;47.182;27.506;2023-03-13T14:33:11;100329.59;;;13.83;31.07